Time;durP1;ratioP1;P1;durP2;ratioP2;P2;SDS_P1;SDS_P2;PMS_P1;PMS_P2;Temp;Humidity;BMP_temperature;BMP_pressure;BME280_temperature;BME280_humidity;BME280_pressure;Samples;Min_cycle;Max_cycle;Signal;HPM_P1;HPM_P2
2024/04/10 00:00:54;;;;;;;2.72;1.08;;;30.80;23.20;;;;;;5376935;26;20096;-47
2024/04/10 00:03:22;;;;;;;10.05;1.20;;;30.70;23.10;;;;;;5376739;26;20091;-51
2024/04/10 00:06:05;;;;;;;3.50;1.13;;;30.50;22.60;;;;;;5376145;26;21108;-49
2024/04/10 00:08:33;;;;;;;4.07;1.70;;;30.50;22.60;;;;;;5376563;26;20075;-55
2024/04/10 00:11:00;;;;;;;6.22;1.92;;;30.70;22.60;;;;;;5376068;26;20077;-47
2024/04/10 00:15:20;;;;;;;3.25;0.88;;;30.60;21.70;;;;;;5531287;25;20355;-48
2024/04/10 00:17:47;;;;;;;4.05;1.80;;;30.60;22.30;;;;;;5527036;25;20070;-47
2024/04/10 00:20:13;;;;;;;5.38;1.08;;;30.40;22.40;;;;;;5527953;25;20143;-47
2024/04/10 00:22:40;;;;;;;10.95;4.78;;;30.40;22.30;;;;;;5501447;25;20399;-51
2024/04/10 00:25:06;;;;;;;4.88;2.00;;;30.30;22.30;;;;;;5536896;25;20069;-48
2024/04/10 00:27:33;;;;;;;5.45;2.17;;;30.30;22.50;;;;;;5536366;25;20062;-48
2024/04/10 00:30:00;;;;;;;6.18;1.30;;;30.40;22.90;;;;;;5534935;25;20060;-47
2024/04/10 00:32:26;;;;;;;4.07;1.25;;;30.10;22.60;;;;;;5533978;25;20058;-47
2024/04/10 00:34:52;;;;;;;3.80;1.00;;;30.10;22.00;;;;;;5531797;25;20146;-47
2024/04/10 00:37:19;;;;;;;3.88;0.90;;;30.10;22.20;;;;;;5504267;25;20062;-51
2024/04/10 00:39:45;;;;;;;1.95;1.00;;;30.00;22.10;;;;;;5536225;25;20064;-48
2024/04/10 00:42:12;;;;;;;2.38;0.88;;;29.90;22.60;;;;;;5535894;25;20084;-52
2024/04/10 00:44:52;;;;;;;2.97;0.95;;;29.90;22.70;;;;;;5531048;25;20166;-51
2024/04/10 00:47:20;;;;;;;7.05;1.40;;;29.90;22.80;;;;;;5499937;25;20087;-47
2024/04/10 00:49:47;;;;;;;4.40;2.15;;;29.90;22.90;;;;;;5535846;25;20061;-48
2024/04/10 00:52:14;;;;;;;11.50;1.77;;;29.70;22.40;;;;;;5538144;25;20507;-47
2024/04/10 00:54:42;;;;;;;1.40;0.82;;;29.50;22.60;;;;;;5534880;25;20061;-49
2024/04/10 00:57:09;;;;;;;4.45;1.83;;;29.40;22.20;;;;;;5534749;25;20057;-52
2024/04/10 00:59:36;;;;;;;3.47;1.52;;;29.40;22.70;;;;;;5530489;25;20070;-48
2024/04/10 01:02:06;;;;;;;1.73;1.33;;;29.20;22.60;;;;;;5502254;25;20061;-51
2024/04/10 01:04:34;;;;;;;3.28;1.30;;;29.10;22.00;;;;;;5536380;25;20082;-48
2024/04/10 01:07:06;;;;;;;2.92;0.95;;;29.00;22.20;;;;;;5502626;25;20104;-49
2024/04/10 01:09:32;;;;;;;2.05;0.90;;;29.00;21.90;;;;;;5535747;25;20156;-49
2024/04/10 01:11:59;;;;;;;3.65;0.98;;;29.20;22.00;;;;;;5534012;25;20519;-47
2024/04/10 01:14:25;;;;;;;5.97;1.00;;;29.50;21.60;;;;;;5532512;25;20088;-46
2024/04/10 01:16:52;;;;;;;2.10;1.10;;;29.90;21.90;;;;;;5533102;25;20065;-52
2024/04/10 01:19:18;;;;;;;3.35;0.80;;;29.50;21.30;;;;;;5532167;25;20061;-51
2024/04/10 01:21:45;;;;;;;4.85;1.00;;;29.10;21.40;;;;;;5534423;25;20061;-51
2024/04/10 01:24:12;;;;;;;5.40;1.00;;;28.80;21.80;;;;;;5537397;25;20550;-49
2024/04/10 01:26:38;;;;;;;1.65;1.05;;;28.50;21.10;;;;;;5517002;26;20559;-49
2024/04/10 01:29:05;;;;;;;2.08;0.90;;;28.30;20.70;;;;;;5484086;26;20078;-49
2024/04/10 01:31:31;;;;;;;2.25;0.90;;;28.10;20.20;;;;;;5518499;26;20155;-53
2024/04/10 01:33:58;;;;;;;2.90;0.98;;;27.90;20.10;;;;;;5516653;26;20063;-49
2024/04/10 01:36:24;;;;;;;6.30;1.38;;;27.80;20.50;;;;;;5517522;26;20063;-52
2024/04/10 01:38:51;;;;;;;2.53;1.33;;;27.70;21.00;;;;;;5519556;26;20066;-49
2024/04/10 01:41:17;;;;;;;3.67;1.10;;;27.50;21.10;;;;;;5516969;26;20062;-49
2024/04/10 01:43:43;;;;;;;5.07;1.10;;;27.40;21.70;;;;;;5517860;26;20062;-51
2024/04/10 01:46:10;;;;;;;5.25;1.13;;;27.30;22.60;;;;;;5504759;26;20151;-53
2024/04/10 01:48:36;;;;;;;5.07;1.20;;;27.20;22.40;;;;;;5484396;26;20094;-49
2024/04/10 01:51:03;;;;;;;4.68;1.48;;;27.10;22.50;;;;;;5485648;26;20059;-52
2024/04/10 01:53:29;;;;;;;4.55;1.55;;;27.00;22.80;;;;;;5519553;26;20073;-53
2024/04/10 01:55:56;;;;;;;8.20;1.73;;;26.90;22.80;;;;;;5517692;26;20505;-54
2024/04/10 01:58:22;;;;;;;5.70;1.42;;;26.80;23.10;;;;;;5517464;26;20065;-52
2024/04/10 02:00:49;;;;;;;8.80;2.22;;;26.70;23.30;;;;;;5510543;26;20088;-51
2024/04/10 02:03:15;;;;;;;9.07;1.77;;;26.60;23.20;;;;;;5482557;26;20062;-52
2024/04/10 02:05:41;;;;;;;12.75;2.13;;;26.50;23.00;;;;;;5518549;26;20063;-54
2024/04/10 02:08:08;;;;;;;5.93;1.70;;;26.40;23.90;;;;;;5520735;26;20101;-53
2024/04/10 02:10:34;;;;;;;10.77;1.40;;;26.20;23.70;;;;;;5514355;26;20821;-54
2024/04/10 02:13:01;;;;;;;6.22;1.50;;;26.10;23.40;;;;;;5513405;26;20219;-51
2024/04/10 02:15:27;;;;;;;10.20;1.85;;;26.00;24.00;;;;;;5510577;26;20087;-53
2024/04/10 02:17:54;;;;;;;17.90;1.83;;;25.80;24.90;;;;;;5485126;26;20151;-54
2024/04/10 02:20:21;;;;;;;14.88;1.60;;;25.70;25.00;;;;;;5485540;26;20146;-50
2024/04/10 02:22:48;;;;;;;17.98;2.10;;;25.50;25.20;;;;;;5519985;26;20554;-50
2024/04/10 02:25:14;;;;;;;3.78;2.03;;;25.40;25.80;;;;;;5483101;26;20076;-54
2024/04/10 02:27:41;;;;;;;16.40;2.67;;;25.20;25.90;;;;;;5521028;26;20063;-53
2024/04/10 02:30:10;;;;;;;17.77;2.85;;;25.00;26.50;;;;;;5516346;26;20074;-54
2024/04/10 02:32:36;;;;;;;16.20;3.05;;;24.80;26.80;;;;;;5514433;26;20106;-56
2024/04/10 02:35:03;;;;;;;13.93;2.95;;;24.60;26.60;;;;;;5518079;26;20062;-50
2024/04/10 02:37:29;;;;;;;10.13;2.72;;;24.50;26.90;;;;;;5521409;26;20519;-54
2024/04/10 02:39:57;;;;;;;26.25;3.40;;;24.40;27.60;;;;;;5513759;26;20070;-53
2024/04/10 02:42:23;;;;;;;14.15;2.80;;;24.20;28.10;;;;;;5511809;26;20121;-55
2024/04/10 02:44:51;;;;;;;22.55;3.10;;;24.10;28.50;;;;;;5479818;26;20154;-53
2024/04/10 02:47:19;;;;;;;23.17;3.83;;;23.90;29.20;;;;;;5513644;26;20070;-54
2024/04/10 02:49:45;;;;;;;29.58;4.05;;;23.80;29.20;;;;;;5516538;26;20070;-51
2024/04/10 02:52:12;;;;;;;28.25;5.05;;;23.70;29.40;;;;;;5519962;26;20174;-53
2024/04/10 02:54:38;;;;;;;32.25;5.70;;;23.70;29.70;;;;;;5483905;26;20548;-54
2024/04/10 02:57:05;;;;;;;24.52;4.82;;;23.60;30.10;;;;;;5514651;26;20066;-52
2024/04/10 02:59:31;;;;;;;33.28;4.57;;;23.50;30.00;;;;;;5516436;26;20088;-53
2024/04/10 03:01:58;;;;;;;30.58;4.18;;;23.40;30.40;;;;;;5516814;26;20093;-54
2024/04/10 03:04:24;;;;;;;38.15;4.93;;;23.20;30.30;;;;;;5512359;26;20062;-52
2024/04/10 03:06:52;;;;;;;34.75;4.22;;;23.10;31.30;;;;;;5509536;26;20175;-50
2024/04/10 03:09:21;;;;;;;32.83;4.55;;;23.00;30.70;;;;;;5516770;26;20097;-51
2024/04/10 03:11:47;;;;;;;29.75;4.30;;;23.00;31.00;;;;;;5517531;26;20416;-55
2024/04/10 03:14:14;;;;;;;62.53;5.97;;;22.90;31.10;;;;;;5511819;26;20117;-53
2024/04/10 03:16:40;;;;;;;36.85;5.90;;;22.90;30.60;;;;;;5497771;26;20062;-56
2024/04/10 03:19:07;;;;;;;53.13;7.25;;;22.90;31.10;;;;;;5517158;26;20191;-52
2024/04/10 03:21:33;;;;;;;36.10;7.28;;;22.80;31.70;;;;;;5517887;26;20147;-54
2024/04/10 03:23:59;;;;;;;36.50;6.53;;;22.80;31.80;;;;;;5485817;26;20084;-55
2024/04/10 03:26:26;;;;;;;25.27;5.55;;;22.70;31.40;;;;;;5517862;26;20066;-51
2024/04/10 03:28:52;;;;;;;31.60;6.95;;;22.70;31.30;;;;;;5516535;26;20062;-53
2024/04/10 03:31:19;;;;;;;28.73;7.13;;;22.60;32.00;;;;;;5514300;26;20062;-54
2024/04/10 03:33:45;;;;;;;35.88;7.88;;;22.50;32.20;;;;;;5444570;26;20171;-56
2024/04/10 03:36:12;;;;;;;45.78;10.88;;;22.50;33.40;;;;;;5516078;26;20539;-52
2024/04/10 03:38:39;;;;;;;51.90;12.68;;;22.40;33.00;;;;;;5517009;26;20149;-55
2024/04/10 03:41:05;;;;;;;50.67;12.05;;;22.40;33.10;;;;;;5517529;26;20074;-51
2024/04/10 03:43:32;;;;;;;45.65;11.45;;;22.40;32.20;;;;;;5514059;26;20157;-55
2024/04/10 03:46:00;;;;;;;59.67;10.80;;;22.50;29.90;;;;;;5520606;26;20063;-55
2024/04/10 03:48:26;;;;;;;38.05;9.30;;;22.50;29.90;;;;;;5512460;26;20066;-53
2024/04/10 03:51:00;;;;;;;43.30;9.13;;;22.50;30.20;;;;;;5510644;26;20975;-51
2024/04/10 03:53:26;;;;;;;49.63;8.45;;;22.50;29.70;;;;;;5505307;26;20071;-51
2024/04/10 03:55:53;;;;;;;46.13;8.18;;;22.50;30.40;;;;;;5483521;26;20084;-53
2024/04/10 03:58:19;;;;;;;42.78;8.82;;;22.50;30.10;;;;;;5518387;26;20062;-53
2024/04/10 04:00:50;;;;;;;40.33;8.57;;;22.40;31.30;;;;;;5507324;26;20074;-50
2024/04/10 04:03:17;;;;;;;40.70;8.73;;;22.40;31.50;;;;;;5499364;26;20778;-52
2024/04/10 04:05:43;;;;;;;51.25;9.18;;;22.30;31.40;;;;;;5516883;26;20156;-50
2024/04/10 04:08:11;;;;;;;54.42;9.45;;;22.20;31.10;;;;;;5504813;26;20070;-54
2024/04/10 04:10:38;;;;;;;35.05;8.15;;;22.20;30.50;;;;;;5510810;26;20141;-51
2024/04/10 04:13:04;;;;;;;34.40;7.85;;;22.20;30.00;;;;;;5484531;26;20089;-56
2024/04/10 04:15:32;;;;;;;42.22;8.63;;;22.20;30.60;;;;;;5512063;26;20066;-52
2024/04/10 04:17:59;;;;;;;44.40;9.65;;;22.10;30.70;;;;;;5483738;26;20089;-52
2024/04/10 04:20:26;;;;;;;46.13;8.30;;;22.10;31.00;;;;;;5515471;26;20066;-53
2024/04/10 04:22:52;;;;;;;47.03;8.48;;;22.00;31.10;;;;;;5512758;26;20070;-51
2024/04/10 04:25:18;;;;;;;39.95;8.75;;;21.90;31.40;;;;;;5516335;26;20062;-52
2024/04/10 04:27:45;;;;;;;42.53;8.43;;;21.80;31.80;;;;;;5517352;26;20063;-57
2024/04/10 04:30:12;;;;;;;43.63;8.45;;;21.70;33.50;;;;;;5514800;26;20062;-51
2024/04/10 04:32:39;;;;;;;46.90;7.85;;;21.60;33.40;;;;;;5484023;26;20085;-50
2024/04/10 04:35:05;;;;;;;37.47;8.68;;;21.50;34.00;;;;;;5512943;26;20066;-51
2024/04/10 04:37:32;;;;;;;41.53;9.05;;;21.40;33.10;;;;;;5516225;26;20169;-51
2024/04/10 04:39:59;;;;;;;70.63;10.93;;;21.30;33.30;;;;;;5513614;26;20086;-49
2024/04/10 04:42:26;;;;;;;53.10;9.63;;;21.40;32.70;;;;;;5511550;26;20095;-52
2024/04/10 04:44:52;;;;;;;50.92;9.48;;;21.40;33.00;;;;;;5514691;26;20070;-53
2024/04/10 04:47:19;;;;;;;57.50;9.23;;;21.40;34.30;;;;;;5514741;26;20524;-55
2024/04/10 04:49:45;;;;;;;47.28;9.43;;;21.20;34.50;;;;;;5477752;26;20062;-52
2024/04/10 04:52:11;;;;;;;60.00;14.45;;;21.10;34.10;;;;;;5516271;26;20085;-53
2024/04/10 04:54:38;;;;;;;54.17;13.68;;;21.00;35.00;;;;;;5477710;26;20067;-50
2024/04/10 04:57:09;;;;;;;47.47;10.30;;;20.80;36.20;;;;;;5512703;26;20164;-54
2024/04/10 04:59:35;;;;;;;59.33;9.93;;;20.80;35.80;;;;;;5514230;26;20150;-52
2024/04/10 05:02:02;;;;;;;55.78;9.70;;;20.80;36.10;;;;;;5483828;26;20062;-51
2024/04/10 05:07:13;;;;;;;58.08;14.93;;;20.60;35.90;;;;;;5520121;26;20161;-50
2024/04/10 05:09:40;;;;;;;57.58;23.02;;;20.50;36.40;;;;;;5516729;26;20074;-52
2024/04/10 05:12:06;;;;;;;59.45;13.23;;;20.40;37.10;;;;;;5485354;26;20071;-51
2024/04/10 05:14:33;;;;;;;54.78;13.00;;;20.40;36.00;;;;;;5517423;26;20067;-54
2024/04/10 05:17:00;;;;;;;39.80;9.98;;;20.40;36.80;;;;;;5519474;26;20070;-51
2024/04/10 05:19:27;;;;;;;56.00;11.00;;;20.50;35.20;;;;;;5486065;26;20407;-52
2024/04/10 05:21:53;;;;;;;62.67;12.00;;;20.50;35.00;;;;;;5518292;26;20066;-54
2024/04/10 05:24:23;;;;;;;69.65;11.35;;;20.50;33.80;;;;;;5486590;26;20074;-53
2024/04/10 05:26:50;;;;;;;58.80;12.10;;;20.50;33.90;;;;;;5487073;26;20088;-52
2024/04/10 05:29:17;;;;;;;49.28;11.23;;;20.50;34.70;;;;;;5515165;26;20547;-52
2024/04/10 05:31:43;;;;;;;72.68;12.60;;;20.50;34.50;;;;;;5511096;26;21443;-53
2024/04/10 05:34:10;;;;;;;64.90;11.80;;;20.50;34.20;;;;;;5483604;26;20089;-53
2024/04/10 05:36:36;;;;;;;62.25;12.93;;;20.40;33.60;;;;;;5513870;26;20153;-54
2024/04/10 05:39:03;;;;;;;49.45;11.95;;;20.40;33.40;;;;;;5519690;26;20070;-57
2024/04/10 05:41:30;;;;;;;48.50;11.45;;;20.40;33.50;;;;;;5517246;26;20066;-53
2024/04/10 05:43:56;;;;;;;56.10;11.48;;;20.40;33.60;;;;;;5515869;26;20070;-53
2024/04/10 05:46:24;;;;;;;56.92;11.90;;;20.30;34.20;;;;;;5517587;26;20093;-55
2024/04/10 05:48:51;;;;;;;66.05;12.55;;;20.20;35.40;;;;;;5517850;26;20110;-51
2024/04/10 05:51:17;;;;;;;55.47;11.07;;;20.30;34.50;;;;;;5512048;26;20117;-55
2024/04/10 05:53:46;;;;;;;54.85;11.32;;;20.30;34.70;;;;;;5516847;26;20127;-53
2024/04/10 05:56:13;;;;;;;65.68;11.30;;;20.20;33.90;;;;;;5513518;26;20150;-54
2024/04/10 05:58:39;;;;;;;64.55;11.77;;;20.20;34.70;;;;;;5515351;26;20097;-51
2024/04/10 06:01:07;;;;;;;52.50;10.40;;;20.20;34.50;;;;;;5516602;26;20088;-53
2024/04/10 06:03:34;;;;;;;55.22;11.25;;;20.20;34.60;;;;;;5517353;26;20062;-53
2024/04/10 06:06:08;;;;;;;59.72;10.95;;;20.10;36.80;;;;;;5485475;26;20165;-50
2024/04/10 06:08:35;;;;;;;51.53;11.52;;;20.00;36.50;;;;;;5518492;26;20081;-53
2024/04/10 06:11:02;;;;;;;41.72;11.23;;;19.90;35.80;;;;;;5514820;26;20066;-51
2024/04/10 06:13:28;;;;;;;57.15;12.02;;;19.90;36.20;;;;;;5517441;26;20088;-51
2024/04/10 06:15:59;;;;;;;53.40;11.38;;;19.70;37.60;;;;;;5515454;26;20149;-53
2024/04/10 06:18:25;;;;;;;56.58;11.65;;;19.60;37.00;;;;;;5512946;26;20097;-52
2024/04/10 06:20:59;;;;;;;50.75;12.23;;;19.60;36.70;;;;;;5517393;26;20066;-53
2024/04/10 06:23:30;;;;;;;51.85;11.10;;;19.50;37.10;;;;;;5480856;26;20077;-50
2024/04/10 06:25:57;;;;;;;46.88;11.27;;;19.50;39.00;;;;;;5482132;26;20089;-54
2024/04/10 06:28:27;;;;;;;60.03;12.25;;;19.40;38.80;;;;;;5513941;26;20089;-51
2024/04/10 06:31:01;;;;;;;40.03;11.80;;;19.30;38.50;;;;;;5515108;26;20062;-51
2024/04/10 06:33:28;;;;;;;72.43;12.63;;;19.30;39.10;;;;;;5505529;26;20066;-51
2024/04/10 06:36:04;;;;;;;47.70;11.30;;;19.30;38.60;;;;;;5517809;26;20067;-51
2024/04/10 06:38:32;;;;;;;64.03;11.52;;;19.30;38.80;;;;;;5511883;26;20554;-52
2024/04/10 06:41:00;;;;;;;45.78;10.05;;;19.30;38.60;;;;;;5517470;26;20123;-55
2024/04/10 06:43:27;;;;;;;45.05;9.82;;;19.20;38.10;;;;;;5517486;26;20066;-52
2024/04/10 06:45:58;;;;;;;57.83;12.20;;;19.20;38.20;;;;;;5480363;26;20431;-53
2024/04/10 06:48:25;;;;;;;61.33;12.02;;;19.10;38.50;;;;;;5515526;26;20559;-50
2024/04/10 06:51:02;;;;;;;65.35;14.88;;;19.00;38.50;;;;;;5485183;26;20154;-54
2024/04/10 06:53:29;;;;;;;70.07;14.45;;;19.00;38.30;;;;;;5516847;26;20070;-53
2024/04/10 06:55:57;;;;;;;63.90;14.10;;;19.10;38.00;;;;;;5519294;26;20106;-50
2024/04/10 06:58:25;;;;;;;70.32;15.95;;;19.00;37.60;;;;;;5517082;26;20106;-53
2024/04/10 07:00:58;;;;;;;72.47;15.75;;;19.00;37.70;;;;;;5513880;26;20142;-52
2024/04/10 07:03:26;;;;;;;75.93;16.50;;;18.90;37.60;;;;;;5515540;26;20070;-53
2024/04/10 07:06:05;;;;;;;55.17;13.00;;;18.90;37.20;;;;;;5514403;26;20101;-53
2024/04/10 07:08:36;;;;;;;47.05;11.18;;;18.90;38.40;;;;;;5518207;26;20141;-52
2024/04/10 07:11:11;;;;;;;43.80;10.75;;;19.00;38.80;;;;;;5482711;26;20535;-54
2024/04/10 07:13:44;;;;;;;42.67;9.40;;;19.10;39.30;;;;;;5456032;26;20066;-53
2024/04/10 07:16:11;;;;;;;44.15;9.57;;;19.20;39.40;;;;;;5519786;26;20566;-52
2024/04/10 07:18:38;;;;;;;42.28;8.85;;;19.10;39.60;;;;;;5514915;26;20167;-52
2024/04/10 07:21:09;;;;;;;34.63;7.97;;;19.10;40.30;;;;;;5513585;26;20106;-50
2024/04/10 07:23:37;;;;;;;30.67;6.35;;;19.00;40.80;;;;;;5511590;26;20066;-56
2024/04/10 07:26:12;;;;;;;29.10;6.28;;;18.90;41.50;;;;;;5515348;26;21303;-55
2024/04/10 07:28:53;;;;;;;21.40;5.57;;;18.90;41.80;;;;;;5516986;26;20140;-53
2024/04/10 07:31:22;;;;;;;27.50;5.13;;;18.90;42.40;;;;;;5484226;26;20062;-52
2024/04/10 07:33:51;;;;;;;19.30;5.22;;;18.80;42.80;;;;;;5518151;26;20084;-52
2024/04/10 07:36:20;;;;;;;18.27;5.05;;;18.80;43.50;;;;;;5516509;26;20062;-51
2024/04/10 07:38:48;;;;;;;34.72;5.50;;;18.80;43.70;;;;;;5487553;26;20147;-54
2024/04/10 07:41:17;;;;;;;27.83;5.60;;;18.70;44.70;;;;;;5516469;26;20114;-50
2024/04/10 07:43:44;;;;;;;24.40;4.88;;;18.60;44.70;;;;;;5516192;26;20066;-52
2024/04/10 07:46:19;;;;;;;15.63;3.35;;;18.60;44.40;;;;;;5517821;26;20075;-52
2024/04/10 07:48:56;;;;;;;11.27;2.80;;;18.60;44.80;;;;;;5516860;26;20057;-53
2024/04/10 07:51:23;;;;;;;15.63;3.08;;;18.70;44.30;;;;;;5513757;26;20482;-51
2024/04/10 07:53:49;;;;;;;8.45;2.85;;;18.80;43.20;;;;;;5517800;26;20563;-50
2024/04/10 07:56:16;;;;;;;7.38;2.60;;;18.90;44.10;;;;;;5515089;26;20062;-52
2024/04/10 07:58:43;;;;;;;8.73;2.42;;;19.00;43.80;;;;;;5484275;26;20093;-50
2024/04/10 08:01:11;;;;;;;13.27;2.97;;;19.00;43.70;;;;;;5514259;26;20070;-53
2024/04/10 08:03:37;;;;;;;9.25;1.88;;;19.00;43.10;;;;;;5518799;26;20106;-55
2024/04/10 08:06:07;;;;;;;6.53;1.90;;;19.10;42.00;;;;;;5514041;26;20066;-52
2024/04/10 08:08:35;;;;;;;7.63;2.00;;;19.20;41.30;;;;;;5514016;26;20074;-51
2024/04/10 08:11:07;;;;;;;5.82;2.10;;;19.40;40.90;;;;;;5512590;26;20172;-52
2024/04/10 08:13:34;;;;;;;4.85;2.10;;;19.50;40.00;;;;;;5516068;26;20179;-51
2024/04/10 08:16:04;;;;;;;6.28;2.00;;;19.60;39.20;;;;;;5485512;26;20130;-52
2024/04/10 08:18:33;;;;;;;5.68;2.00;;;19.70;38.80;;;;;;5511350;26;20153;-50
2024/04/10 08:21:05;;;;;;;5.53;1.98;;;19.70;38.90;;;;;;5481832;26;20093;-54
2024/04/10 08:23:34;;;;;;;9.75;2.38;;;19.60;38.90;;;;;;5515476;26;20447;-53
2024/04/10 08:26:08;;;;;;;6.50;2.28;;;19.60;38.80;;;;;;5516978;26;20066;-55
2024/04/10 08:28:37;;;;;;;9.80;1.85;;;19.70;38.50;;;;;;5515142;26;20074;-56
2024/04/10 08:31:03;;;;;;;6.45;1.88;;;19.70;37.80;;;;;;5480842;26;20082;-53
2024/04/10 08:33:30;;;;;;;4.97;1.73;;;19.70;37.60;;;;;;5511812;26;20088;-51
2024/04/10 08:36:02;;;;;;;7.18;2.22;;;19.70;38.20;;;;;;5519080;26;20525;-51
2024/04/10 08:38:29;;;;;;;5.25;1.80;;;19.70;38.90;;;;;;5516215;26;20100;-55
2024/04/10 08:40:58;;;;;;;9.38;2.33;;;19.60;39.30;;;;;;5489312;26;20059;-51
2024/04/10 08:43:31;;;;;;;8.40;2.13;;;19.40;39.70;;;;;;5519281;26;20085;-54
2024/04/10 08:45:58;;;;;;;5.63;1.80;;;19.10;40.30;;;;;;5519299;26;20062;-49
2024/04/10 08:48:25;;;;;;;4.15;1.98;;;19.00;40.60;;;;;;5523250;26;20100;-49
2024/04/10 08:50:53;;;;;;;5.72;1.67;;;18.90;42.50;;;;;;5516783;26;21026;-52
2024/04/10 08:53:20;;;;;;;3.33;1.77;;;18.80;42.20;;;;;;5515992;26;20082;-53
2024/04/10 08:55:47;;;;;;;4.07;1.80;;;18.70;41.90;;;;;;5517038;26;20097;-54
2024/04/10 08:58:14;;;;;;;6.70;1.83;;;18.50;43.30;;;;;;5521646;26;20062;-54
2024/04/10 09:00:45;;;;;;;11.73;2.30;;;18.50;42.40;;;;;;5518134;26;20078;-51
2024/04/10 09:03:12;;;;;;;8.50;2.25;;;18.90;43.20;;;;;;5515512;26;20074;-58
2024/04/10 09:05:39;;;;;;;9.52;1.90;;;19.10;42.20;;;;;;5508312;26;20059;-57
2024/04/10 09:08:07;;;;;;;6.65;1.88;;;19.40;42.10;;;;;;5516160;26;20058;-56
2024/04/10 09:10:34;;;;;;;7.18;1.90;;;19.50;42.90;;;;;;5479728;26;20062;-58
2024/04/10 09:13:13;;;;;;;2.97;1.50;;;19.50;41.90;;;;;;5517995;26;20089;-56
2024/04/10 09:15:40;;;;;;;3.70;1.73;;;19.60;42.50;;;;;;5481633;26;20062;-56
2024/04/10 09:18:07;;;;;;;6.45;1.83;;;19.60;41.60;;;;;;5515280;26;20062;-56
2024/04/10 09:20:34;;;;;;;5.22;1.60;;;19.70;41.70;;;;;;5512521;26;20201;-56
2024/04/10 09:23:05;;;;;;;7.50;1.50;;;19.70;40.80;;;;;;5511434;26;20066;-56
2024/04/10 09:25:33;;;;;;;6.15;1.70;;;20.00;39.70;;;;;;5481290;26;20070;-55
2024/04/10 09:28:04;;;;;;;6.10;1.55;;;20.00;39.30;;;;;;5516117;26;20078;-56
2024/04/10 09:30:31;;;;;;;6.13;1.45;;;20.20;38.80;;;;;;5511991;26;20089;-54
2024/04/10 09:33:00;;;;;;;5.50;1.50;;;20.10;38.90;;;;;;5517865;26;20062;-52
2024/04/10 09:35:28;;;;;;;5.38;1.38;;;20.10;40.10;;;;;;5517554;26;20078;-52
2024/04/10 09:38:02;;;;;;;3.97;1.50;;;20.00;40.40;;;;;;5510294;26;20163;-53
2024/04/10 09:40:31;;;;;;;19.05;11.73;;;20.00;40.30;;;;;;5506042;26;20062;-54
2024/04/10 09:43:05;;;;;;;6.75;1.80;;;19.90;40.80;;;;;;5513363;26;20128;-53
2024/04/10 09:45:37;;;;;;;5.13;1.83;;;19.70;41.20;;;;;;5507349;26;20089;-55
2024/04/10 09:48:11;;;;;;;3.85;1.70;;;19.70;40.60;;;;;;5511604;26;20388;-54
2024/04/10 09:50:39;;;;;;;6.00;1.50;;;19.70;40.90;;;;;;5515123;26;20101;-55
2024/04/10 09:53:07;;;;;;;5.57;1.90;;;19.70;40.90;;;;;;5512255;26;20088;-56
2024/04/10 09:55:38;;;;;;;4.93;1.67;;;19.50;41.30;;;;;;5514815;26;20062;-57
2024/04/10 09:58:10;;;;;;;8.98;1.73;;;19.50;41.50;;;;;;5513973;26;20400;-56
2024/04/10 10:00:37;;;;;;;6.63;1.60;;;19.40;41.00;;;;;;5518329;26;20089;-55
2024/04/10 10:03:10;;;;;;;11.52;1.60;;;19.40;40.80;;;;;;5513806;26;20066;-55
2024/04/10 10:05:38;;;;;;;12.32;1.80;;;19.40;40.30;;;;;;5517887;26;20062;-55
2024/04/10 10:08:13;;;;;;;5.43;1.25;;;19.50;40.40;;;;;;5512363;26;20062;-51
2024/04/10 10:10:49;;;;;;;5.25;1.30;;;19.50;40.50;;;;;;5511965;26;20069;-56
2024/04/10 10:13:42;;;;;;;8.23;1.80;;;19.60;40.30;;;;;;5511190;26;20092;-53
2024/04/10 10:16:09;;;;;;;4.57;1.60;;;19.70;40.00;;;;;;5479654;26;20062;-52
2024/04/10 10:18:35;;;;;;;4.30;1.60;;;19.70;40.10;;;;;;5516469;26;20066;-54
2024/04/10 10:21:10;;;;;;;6.00;1.50;;;19.70;40.30;;;;;;5515615;26;20504;-55
2024/04/10 10:23:38;;;;;;;6.57;1.40;;;19.60;41.30;;;;;;5512969;26;20152;-59
2024/04/10 10:26:08;;;;;;;3.15;1.77;;;19.60;41.20;;;;;;5515156;26;20066;-56
2024/04/10 10:28:39;;;;;;;4.72;1.63;;;19.40;40.80;;;;;;5511864;26;20113;-55
2024/04/10 10:31:21;;;;;;;3.25;1.10;;;19.30;41.00;;;;;;5481753;26;20435;-56
2024/04/10 10:33:48;;;;;;;6.05;1.40;;;19.20;43.00;;;;;;5515447;26;20066;-57
2024/04/10 10:36:14;;;;;;;6.47;1.52;;;19.00;43.10;;;;;;5513574;26;20614;-54
2024/04/10 10:38:41;;;;;;;9.25;1.63;;;19.00;43.60;;;;;;5518304;26;20391;-53
2024/04/10 10:41:09;;;;;;;7.40;1.75;;;18.90;43.50;;;;;;5512084;26;20732;-54
2024/04/10 10:43:36;;;;;;;9.48;2.13;;;18.80;43.00;;;;;;5483520;26;20150;-56
2024/04/10 10:46:05;;;;;;;6.43;1.60;;;18.80;42.90;;;;;;5478753;26;20094;-55
2024/04/10 10:48:32;;;;;;;3.97;1.60;;;18.70;42.70;;;;;;5481375;26;20094;-55
2024/04/10 10:50:59;;;;;;;8.18;1.65;;;18.60;43.50;;;;;;5511200;26;20413;-52
2024/04/10 10:53:27;;;;;;;3.47;1.63;;;18.50;44.70;;;;;;5515938;26;20062;-55
2024/04/10 10:55:55;;;;;;;6.78;1.42;;;18.50;45.70;;;;;;5508751;26;20080;-52
2024/04/10 10:58:23;;;;;;;4.50;1.30;;;18.40;44.50;;;;;;5513777;26;20074;-57
2024/04/10 11:00:50;;;;;;;10.27;1.65;;;18.40;44.00;;;;;;5509632;26;20066;-57
2024/04/10 11:03:22;;;;;;;5.20;1.50;;;18.40;44.00;;;;;;5514584;26;20094;-58
2024/04/10 11:05:49;;;;;;;8.35;1.92;;;18.30;44.50;;;;;;5512498;26;20074;-55
2024/04/10 11:08:24;;;;;;;7.38;1.35;;;18.20;44.90;;;;;;5513791;26;20062;-51
2024/04/10 11:10:52;;;;;;;5.47;1.63;;;18.20;44.80;;;;;;5511470;26;20062;-51
2024/04/10 11:13:18;;;;;;;4.75;1.90;;;18.20;44.40;;;;;;5510396;26;20088;-52
2024/04/10 11:15:46;;;;;;;8.93;1.92;;;18.10;44.50;;;;;;5510616;26;20500;-55
2024/04/10 11:18:16;;;;;;;10.10;2.35;;;18.00;44.60;;;;;;5511550;26;20066;-57
2024/04/10 11:20:44;;;;;;;8.40;1.83;;;17.90;45.10;;;;;;5511101;26;20180;-55
2024/04/10 11:23:11;;;;;;;13.50;2.00;;;18.00;45.10;;;;;;5511506;26;20064;-56
2024/04/10 11:25:38;;;;;;;8.02;2.05;;;17.90;45.10;;;;;;5516250;26;20148;-51
2024/04/10 11:28:07;;;;;;;7.03;2.03;;;17.90;44.30;;;;;;5514142;26;20065;-56
2024/04/10 11:30:34;;;;;;;6.63;2.10;;;17.70;46.60;;;;;;5508814;26;20096;-51
2024/04/10 11:33:01;;;;;;;5.38;2.10;;;17.60;46.00;;;;;;5482788;26;20085;-54
2024/04/10 11:35:27;;;;;;;9.05;2.13;;;17.60;46.30;;;;;;5516095;26;20093;-55
2024/04/10 11:37:55;;;;;;;5.32;2.03;;;17.60;46.50;;;;;;5504765;26;20542;-54
2024/04/10 11:40:22;;;;;;;6.68;2.28;;;17.50;46.90;;;;;;5514669;26;20070;-55
2024/04/10 11:42:49;;;;;;;5.28;1.70;;;17.40;46.60;;;;;;5508959;26;20066;-54
2024/04/10 11:45:16;;;;;;;8.38;1.70;;;17.40;46.30;;;;;;5516530;26;20089;-52
2024/04/10 11:47:43;;;;;;;9.05;6.68;;;17.40;46.60;;;;;;5511880;26;20093;-53
2024/04/10 11:50:11;;;;;;;7.93;1.77;;;17.40;47.00;;;;;;5509528;26;20077;-55
2024/04/10 11:52:38;;;;;;;8.27;2.38;;;17.40;47.10;;;;;;5506911;26;20158;-54
2024/04/10 11:55:06;;;;;;;7.38;2.70;;;17.40;47.70;;;;;;5509226;26;20161;-55
2024/04/10 11:57:33;;;;;;;8.57;2.00;;;17.40;47.60;;;;;;5505393;26;20113;-57
2024/04/10 11:59:59;;;;;;;6.78;2.38;;;17.20;48.80;;;;;;5512036;26;20504;-55
2024/04/10 12:02:26;;;;;;;5.45;2.40;;;17.20;49.10;;;;;;5507221;26;20149;-56
2024/04/10 12:04:53;;;;;;;12.50;2.40;;;17.10;48.40;;;;;;5514798;26;20070;-51
2024/04/10 12:07:20;;;;;;;13.32;2.10;;;16.90;49.50;;;;;;5512260;26;20181;-56
2024/04/10 12:09:46;;;;;;;7.82;2.00;;;16.80;49.00;;;;;;5508935;26;20066;-53
2024/04/10 12:12:13;;;;;;;7.10;2.50;;;16.70;49.20;;;;;;5507921;26;20059;-53
2024/04/10 12:14:44;;;;;;;7.97;2.60;;;17.00;48.20;;;;;;5507851;26;20062;-52
2024/04/10 12:17:11;;;;;;;12.40;2.33;;;16.80;47.90;;;;;;5478436;26;20501;-54
2024/04/10 12:19:37;;;;;;;15.80;2.70;;;16.70;48.40;;;;;;5503775;26;20096;-51
2024/04/10 12:22:04;;;;;;;12.23;2.90;;;16.60;48.50;;;;;;5511663;26;20106;-50
2024/04/10 12:24:30;;;;;;;10.73;2.58;;;16.50;48.70;;;;;;5506583;26;20485;-52
2024/04/10 12:26:57;;;;;;;9.48;2.47;;;16.50;49.00;;;;;;5508660;26;20094;-51
2024/04/10 12:29:24;;;;;;;10.27;2.28;;;16.60;49.70;;;;;;5507213;26;20082;-50
2024/04/10 12:31:50;;;;;;;7.88;2.63;;;16.60;49.70;;;;;;5478026;26;20066;-53
2024/04/10 12:34:17;;;;;;;12.05;2.50;;;16.50;49.50;;;;;;5476822;26;20066;-51
2024/04/10 12:39:28;;;;;;;6.03;2.10;;;16.60;49.90;;;;;;5505160;26;20150;-50
2024/04/10 12:41:56;;;;;;;20.08;2.85;;;16.60;49.70;;;;;;5511602;26;20100;-51
2024/04/10 12:44:23;;;;;;;20.73;2.95;;;16.50;49.60;;;;;;5509804;26;20071;-50
2024/04/10 12:46:58;;;;;;;10.15;2.30;;;16.40;49.60;;;;;;5511131;26;20566;-50
2024/04/10 12:49:28;;;;;;;22.13;3.63;;;16.40;50.80;;;;;;5511261;26;20726;-52
2024/04/10 12:51:55;;;;;;;16.38;2.80;;;16.40;51.30;;;;;;5514324;26;20469;-53